Time;durP1;ratioP1;P1;durP2;ratioP2;P2;SDS_P1;SDS_P2;PMS_P1;PMS_P2;Temp;Humidity;BMP_temperature;BMP_pressure;BME280_temperature;BME280_humidity;BME280_pressure;Samples;Min_cycle;Max_cycle;Signal;HPM_P1;HPM_P2
2022/06/02 00:01:21;;;;;;;0.50;0.13;;;15.60;83.10;;;;;;4814947;29;20067;-90
2022/06/02 00:04:23;;;;;;;1.20;0.20;;;15.50;83.40;;;;;;4834546;29;20050;-90
2022/06/02 00:07:06;;;;;;;0.68;0.20;;;15.40;83.70;;;;;;4827464;29;20592;-90
2022/06/02 00:10:20;;;;;;;0.68;0.10;;;15.40;84.10;;;;;;4815386;29;20042;-90
2022/06/02 00:13:26;;;;;;;0.40;0.20;;;15.40;84.00;;;;;;4817292;29;20041;-90
2022/06/02 00:16:08;;;;;;;0.63;0.20;;;15.80;84.40;;;;;;4805826;29;20039;-90
2022/06/02 00:19:09;;;;;;;0.57;0.17;;;15.30;84.20;;;;;;4819304;29;20026;-90
2022/06/02 00:22:06;;;;;;;0.30;0.20;;;15.40;84.20;;;;;;4815878;29;20038;-91
2022/06/02 00:25:09;;;;;;;1.67;0.30;;;15.10;84.90;;;;;;4817994;29;20512;-90
2022/06/02 00:28:06;;;;;;;0.68;0.20;;;16.00;85.40;;;;;;4817610;29;20034;-90
2022/06/02 00:30:57;;;;;;;1.20;0.30;;;15.10;84.50;;;;;;4814023;29;20042;-90
2022/06/02 00:33:33;;;;;;;0.20;0.10;;;15.10;84.60;;;;;;4811292;29;20492;-90
2022/06/02 00:36:27;;;;;;;0.40;0.10;;;14.90;84.50;;;;;;4832537;29;20041;-91
2022/06/02 00:39:03;;;;;;;0.85;0.13;;;15.00;84.40;;;;;;4821400;29;20038;-91
2022/06/02 00:42:06;;;;;;;0.95;0.20;;;15.00;84.60;;;;;;4814596;29;20038;-90
2022/06/02 00:44:36;;;;;;;0.40;0.20;;;15.00;84.40;;;;;;4818716;29;20518;-89
2022/06/02 00:47:51;;;;;;;1.00;0.30;;;15.10;84.80;;;;;;4828123;29;20492;-90
2022/06/02 00:50:23;;;;;;;0.68;0.28;;;15.00;84.80;;;;;;4841923;29;20082;-91
2022/06/02 00:53:11;;;;;;;0.20;0.20;;;14.90;85.50;;;;;;4836046;29;20098;-91
2022/06/02 00:59:25;;;;;;;1.05;0.30;;;14.90;85.50;;;;;;4820028;29;20061;-91
2022/06/02 01:02:11;;;;;;;;;;;;;;;;;;;;;
2022/06/02 01:04:44;;;;;;;1.00;0.20;;;14.30;85.20;;;;;;4813346;29;20038;-90
2022/06/02 01:07:30;;;;;;;0.52;0.20;;;14.90;85.60;;;;;;4813619;29;20121;-90
2022/06/02 01:10:16;;;;;;;0.10;0.10;;;14.80;85.40;;;;;;4816109;29;20030;-90
2022/06/02 01:13:17;;;;;;;0.68;0.20;;;14.90;85.40;;;;;;4814628;29;20045;-90
2022/06/02 01:16:13;;;;;;;0.68;0.20;;;14.90;85.40;;;;;;4817586;29;20038;-90
2022/06/02 01:19:12;;;;;;;1.25;0.10;;;15.00;85.70;;;;;;4823014;29;20046;-90
2022/06/02 01:21:54;;;;;;;1.08;0.30;;;14.90;85.60;;;;;;4817268;29;20129;-90
2022/06/02 01:24:48;;;;;;;0.85;0.22;;;14.90;85.50;;;;;;4814491;29;20083;-90
2022/06/02 01:27:59;;;;;;;0.77;0.20;;;14.70;85.70;;;;;;4824917;29;20045;-91
2022/06/02 01:30:52;;;;;;;0.35;0.20;;;14.80;86.00;;;;;;4818069;29;20522;-91
2022/06/02 01:33:38;;;;;;;0.30;0.20;;;14.80;86.30;;;;;;4834664;29;20045;-90
2022/06/02 01:36:36;;;;;;;0.70;0.28;;;14.70;86.40;;;;;;4821690;29;20125;-89
2022/06/02 01:39:33;;;;;;;0.68;0.22;;;14.70;86.80;;;;;;4814595;29;20041;-90
2022/06/02 01:48:08;;;;;;;0.32;0.20;;;14.70;87.10;;;;;;4821612;29;20044;-90
2022/06/02 01:51:00;;;;;;;0.55;0.28;;;14.60;87.20;;;;;;4834637;29;20031;-89
2022/06/02 01:54:08;;;;;;;0.57;0.20;;;14.30;87.00;;;;;;4864327;24;20070;-88
2022/06/02 01:56:55;;;;;;;0.35;0.10;;;14.60;87.70;;;;;;4822091;29;20054;-88
2022/06/02 01:59:44;;;;;;;1.25;0.20;;;14.50;87.60;;;;;;4824087;29;20575;-91
2022/06/02 02:02:28;;;;;;;0.50;0.20;;;14.40;88.30;;;;;;4843539;29;20026;-91
2022/06/02 02:05:16;;;;;;;1.40;0.30;;;14.40;88.60;;;;;;4843808;29;20090;-89
2022/06/02 02:08:11;;;;;;;2.08;0.17;;;14.40;88.60;;;;;;4843152;29;20118;-90
2022/06/02 02:11:16;;;;;;;0.82;0.28;;;14.30;88.60;;;;;;4856445;29;20110;-89
2022/06/02 02:14:00;;;;;;;1.13;0.17;;;14.20;88.90;;;;;;4847007;29;20093;-89
2022/06/02 02:16:54;;;;;;;1.23;0.43;;;14.20;89.50;;;;;;4843261;29;20030;-90
2022/06/02 02:19:30;;;;;;;0.50;0.10;;;14.20;89.50;;;;;;4845892;29;20026;-90
2022/06/02 02:22:18;;;;;;;0.80;0.25;;;14.10;89.90;;;;;;4820082;29;20082;-90
2022/06/02 02:25:18;;;;;;;0.55;0.13;;;14.10;89.70;;;;;;4837092;29;20526;-91
2022/06/02 02:28:04;;;;;;;0.43;0.13;;;14.20;90.00;;;;;;4820698;29;20030;-90
2022/06/02 02:31:02;;;;;;;0.43;0.20;;;14.10;90.00;;;;;;4822898;29;20026;-90
2022/06/02 02:33:36;;;;;;;0.60;0.20;;;14.10;90.20;;;;;;4852416;29;20121;-89
2022/06/02 02:36:16;;;;;;;0.30;0.10;;;14.10;90.20;;;;;;4821207;29;20050;-91
2022/06/02 02:39:04;;;;;;;1.10;0.30;;;14.00;90.20;;;;;;4822084;29;20019;-90
2022/06/02 02:41:55;;;;;;;0.40;0.20;;;13.90;90.40;;;;;;4822861;29;20034;-91
2022/06/02 02:44:28;;;;;;;1.90;0.20;;;13.90;90.50;;;;;;4834176;29;20035;-91
2022/06/02 02:47:08;;;;;;;0.22;0.10;;;13.50;90.40;;;;;;4823524;29;20427;-90
2022/06/02 02:49:44;;;;;;;0.98;0.40;;;13.90;90.60;;;;;;4822292;29;20053;-91
2022/06/02 02:52:32;;;;;;;0.30;0.20;;;13.90;90.80;;;;;;4821595;29;20499;-89
2022/06/02 02:55:15;;;;;;;0.57;0.30;;;13.90;90.80;;;;;;4820845;29;20098;-91
2022/06/02 02:57:57;;;;;;;0.35;0.20;;;13.90;90.70;;;;;;4821634;29;20526;-90
2022/06/02 03:00:35;;;;;;;0.77;0.32;;;14.20;90.90;;;;;;4819009;29;20078;-89
2022/06/02 03:03:13;;;;;;;0.57;0.22;;;13.90;90.70;;;;;;4822655;29;20412;-90
2022/06/02 03:05:59;;;;;;;0.60;0.30;;;13.90;90.60;;;;;;4826733;29;20026;-91
2022/06/02 03:08:58;;;;;;;0.95;0.30;;;13.80;90.60;;;;;;4827045;29;20030;-89
2022/06/02 03:11:47;;;;;;;0.82;0.50;;;13.80;90.70;;;;;;4851457;29;20054;-90
2022/06/02 03:14:47;;;;;;;0.45;0.28;;;13.80;90.60;;;;;;4838576;29;20054;-90
2022/06/02 03:17:36;;;;;;;0.28;0.20;;;13.80;90.70;;;;;;4851398;29;20038;-89
2022/06/02 03:20:19;;;;;;;7.43;0.50;;;13.80;90.50;;;;;;4838324;29;20027;-90
2022/06/02 03:23:00;;;;;;;1.60;0.20;;;13.80;90.30;;;;;;4845362;29;20082;-90
2022/06/02 03:25:34;;;;;;;0.57;0.20;;;13.80;90.60;;;;;;4825071;29;20049;-92
2022/06/02 03:28:24;;;;;;;0.70;0.20;;;13.70;90.60;;;;;;4824916;29;20034;-91
2022/06/02 03:31:10;;;;;;;1.00;0.30;;;13.70;90.50;;;;;;4820389;29;20030;-90
2022/06/02 03:34:05;;;;;;;0.75;0.50;;;13.90;90.40;;;;;;4833712;29;20034;-89
2022/06/02 03:36:56;;;;;;;1.35;0.30;;;13.70;90.30;;;;;;4823832;29;20038;-91
2022/06/02 03:39:53;;;;;;;1.20;0.43;;;13.80;90.50;;;;;;4839370;29;20038;-91
2022/06/02 03:43:09;;;;;;;0.90;0.30;;;13.70;90.40;;;;;;4832283;29;20067;-91
2022/06/02 03:45:42;;;;;;;1.80;0.40;;;13.70;90.50;;;;;;4843407;29;20067;-92
2022/06/02 03:48:35;;;;;;;0.60;0.30;;;13.80;90.80;;;;;;4826845;29;20042;-92
2022/06/02 03:51:05;;;;;;;1.27;0.45;;;13.70;90.60;;;;;;4840521;29;20484;-91
2022/06/02 03:54:00;;;;;;;0.77;0.35;;;13.80;90.70;;;;;;4823328;29;20045;-91
2022/06/02 03:56:32;;;;;;;1.42;0.45;;;13.80;90.60;;;;;;4834429;29;20038;-92
2022/06/02 03:59:22;;;;;;;0.60;0.30;;;13.90;90.60;;;;;;4825910;29;20034;-92
2022/06/02 04:02:03;;;;;;;0.75;0.30;;;13.90;90.70;;;;;;4836914;29;20037;-91
2022/06/02 04:05:19;;;;;;;1.02;0.47;;;14.10;90.50;;;;;;4821613;29;20030;-92
2022/06/02 04:08:24;;;;;;;0.52;0.30;;;13.90;90.60;;;;;;4825794;29;20061;-90
2022/06/02 04:13:37;;;;;;;0.85;0.40;;;13.90;91.00;;;;;;4837857;29;20027;-91
2022/06/02 04:14:51;;;;;;;0.95;0.30;;;13.80;90.80;;;;;;4820308;29;20034;-90
2022/06/02 04:17:38;;;;;;;1.15;0.40;;;13.90;90.80;;;;;;4836378;29;20054;-90
2022/06/02 04:20:35;;;;;;;0.68;0.30;;;13.90;90.80;;;;;;4825891;29;20113;-90
2022/06/02 04:23:04;;;;;;;0.77;0.30;;;13.90;90.90;;;;;;4825664;29;20058;-91
2022/06/02 04:25:50;;;;;;;1.27;0.40;;;13.50;90.90;;;;;;4827832;29;20027;-90
2022/06/02 04:29:13;;;;;;;0.60;0.22;;;14.00;90.80;;;;;;4827205;29;20065;-91
2022/06/02 04:31:51;;;;;;;;;;;14.00;90.70;;;;;;4807313;29;20117;-90
2022/06/02 04:34:19;;;;;;;0.30;0.20;;;14.00;91.00;;;;;;4823502;29;19920;-90
2022/06/02 04:37:00;;;;;;;0.63;0.30;;;14.30;91.20;;;;;;4816827;29;20039;-90
2022/06/02 04:39:50;;;;;;;0.93;0.30;;;14.00;90.90;;;;;;4833935;29;20031;-90
2022/06/02 04:42:30;;;;;;;1.40;0.43;;;14.00;91.20;;;;;;4821667;29;20030;-90
2022/06/02 04:45:06;;;;;;;2.53;0.40;;;13.90;91.30;;;;;;4836355;29;20261;-90
2022/06/02 04:51:22;;;;;;;2.47;0.50;;;13.90;91.50;;;;;;4823544;29;20038;-90
2022/06/02 05:01:19;;;;;;;0.93;0.57;;;13.90;91.90;;;;;;4820961;29;20564;-89
2022/06/02 05:08:03;;;;;;;;;;;;;;;;;;;;;
2022/06/02 05:11:10;;;;;;;;;;;;;;;;;;;;;
2022/06/02 05:14:45;;;;;;;2.35;0.30;;;14.40;91.70;;;;;;4818534;29;20042;-89
2022/06/02 05:17:11;;;;;;;2.40;0.40;;;14.30;91.40;;;;;;4855756;29;20117;-88
2022/06/02 05:19:59;;;;;;;0.85;0.35;;;14.80;91.30;;;;;;4822651;29;20137;-89
2022/06/02 05:23:05;;;;;;;1.80;0.40;;;14.80;90.70;;;;;;4835107;29;20049;-89
2022/06/02 05:26:11;;;;;;;0.63;0.20;;;15.00;90.60;;;;;;4838346;29;20091;-89
2022/06/02 05:32:51;;;;;;;0.90;0.30;;;15.20;89.80;;;;;;4836904;29;20064;-89
2022/06/02 05:38:56;;;;;;;2.50;0.30;;;15.30;89.70;;;;;;4830049;29;20035;-89
2022/06/02 05:41:55;;;;;;;1.15;0.52;;;15.50;88.70;;;;;;4838143;29;20037;-89
2022/06/02 05:44:36;;;;;;;0.75;0.30;;;15.60;88.40;;;;;;4818676;29;20027;-89
2022/06/02 05:47:06;;;;;;;1.33;0.50;;;15.70;88.90;;;;;;4838946;29;20404;-89
2022/06/02 05:50:06;;;;;;;1.48;0.50;;;15.80;85.80;;;;;;4823353;29;20113;-89
2022/06/02 05:52:59;;;;;;;0.73;0.38;;;15.90;86.50;;;;;;4836615;29;20066;-88
2022/06/02 05:55:28;;;;;;;1.15;0.40;;;15.90;86.40;;;;;;4822399;29;20131;-90
2022/06/02 05:58:19;;;;;;;1.25;0.40;;;16.30;87.30;;;;;;4821581;29;20488;-90
2022/06/02 06:01:17;;;;;;;1.83;0.77;;;16.10;85.20;;;;;;4821486;29;20077;-90
2022/06/02 06:04:04;;;;;;;1.00;0.50;;;16.30;85.70;;;;;;4843389;29;20038;-89
2022/06/02 06:06:50;;;;;;;0.60;0.38;;;16.40;84.50;;;;;;4819771;29;20426;-90
2022/06/02 06:09:43;;;;;;;1.52;0.50;;;16.40;84.00;;;;;;4821483;29;20448;-89
2022/06/02 06:12:38;;;;;;;0.80;0.30;;;16.60;84.30;;;;;;4822312;29;20056;-89
2022/06/02 06:15:34;;;;;;;0.80;0.32;;;16.80;84.40;;;;;;4822865;29;20132;-89
2022/06/02 06:17:59;;;;;;;0.50;0.25;;;16.80;83.50;;;;;;4822087;29;20042;-88
2022/06/02 06:21:08;;;;;;;1.63;0.45;;;16.90;84.50;;;;;;4822936;29;20037;-89
2022/06/02 06:24:02;;;;;;;0.98;0.40;;;16.80;83.00;;;;;;4832525;29;20068;-89
2022/06/02 06:26:49;;;;;;;1.65;0.50;;;16.90;84.00;;;;;;4820375;29;20091;-91
2022/06/02 06:29:43;;;;;;;0.95;0.40;;;16.90;83.30;;;;;;4823160;29;20030;-91
2022/06/02 06:32:16;;;;;;;2.30;0.55;;;16.70;83.70;;;;;;4824661;29;20057;-90
2022/06/02 06:35:10;;;;;;;0.88;0.38;;;16.90;84.10;;;;;;4822216;29;20034;-90
2022/06/02 06:38:02;;;;;;;2.38;0.50;;;17.10;83.60;;;;;;4834531;29;20030;-91
2022/06/02 06:40:50;;;;;;;1.77;0.50;;;17.10;84.00;;;;;;4816344;29;20065;-90
2022/06/02 06:43:34;;;;;;;1.20;0.40;;;17.10;84.80;;;;;;4824681;29;20018;-90
2022/06/02 06:46:19;;;;;;;1.33;0.50;;;17.20;84.60;;;;;;4823179;29;20034;-91
2022/06/02 06:48:59;;;;;;;1.10;0.50;;;17.70;84.70;;;;;;4837746;29;20079;-90
2022/06/02 06:52:02;;;;;;;1.45;0.55;;;17.30;83.10;;;;;;4823107;29;20038;-90
2022/06/02 06:54:46;;;;;;;0.70;0.30;;;17.40;84.20;;;;;;4821585;29;20034;-91
2022/06/02 06:57:31;;;;;;;1.10;0.40;;;17.60;83.50;;;;;;4821988;29;20038;-91
2022/06/02 07:00:05;;;;;;;1.25;0.40;;;17.50;83.40;;;;;;4828710;29;20030;-90
2022/06/02 07:02:51;;;;;;;1.67;0.50;;;17.50;83.30;;;;;;4821493;29;20496;-90
2022/06/02 07:05:26;;;;;;;1.67;0.60;;;17.60;83.50;;;;;;4820151;29;20063;-90
2022/06/02 07:08:24;;;;;;;2.25;0.22;;;17.60;83.40;;;;;;4823698;29;20102;-91
2022/06/02 07:12:50;;;;;;;2.25;0.40;;;17.90;83.00;;;;;;4821470;29;20054;-92
2022/06/02 07:14:21;;;;;;;0.85;0.30;;;17.50;83.10;;;;;;4822422;29;20039;-91
2022/06/02 07:17:13;;;;;;;0.73;0.30;;;17.40;83.80;;;;;;4823304;29;20054;-91
2022/06/02 07:19:47;;;;;;;0.80;0.30;;;17.40;84.70;;;;;;4813114;29;20034;-90
2022/06/02 07:22:43;;;;;;;1.05;0.30;;;17.50;83.20;;;;;;4818081;29;20033;-90
2022/06/02 07:25:23;;;;;;;0.60;0.20;;;17.50;83.90;;;;;;4821629;29;20027;-90
2022/06/02 07:28:26;;;;;;;0.80;0.30;;;17.70;84.10;;;;;;4822717;29;20377;-89
2022/06/02 07:31:35;;;;;;;1.35;0.50;;;17.90;83.10;;;;;;4819320;29;20037;-89
2022/06/02 07:34:04;;;;;;;1.55;0.40;;;17.80;82.50;;;;;;4822108;29;20084;-89
2022/06/02 07:36:50;;;;;;;1.55;0.50;;;18.00;82.90;;;;;;4830140;29;20504;-90
2022/06/02 07:39:35;;;;;;;0.93;0.30;;;18.10;82.40;;;;;;4816739;29;20049;-89
2022/06/02 07:42:35;;;;;;;0.93;0.35;;;18.20;82.60;;;;;;4821137;29;20053;-89
2022/06/02 07:45:27;;;;;;;0.90;0.32;;;18.10;82.40;;;;;;4823270;29;20027;-88
2022/06/02 07:48:13;;;;;;;0.73;0.30;;;18.10;82.50;;;;;;4818665;29;20110;-89
2022/06/02 07:51:06;;;;;;;1.13;0.40;;;18.30;82.90;;;;;;4819235;29;20104;-90
2022/06/02 09:01:43;;;;;;;1.50;0.73;;;21.00;75.20;;;;;;3184583;27;20057;-89
2022/06/02 09:04:46;;;;;;;0.93;0.28;;;20.80;75.00;;;;;;4846766;29;20750;-92
2022/06/02 09:07:39;;;;;;;0.47;0.30;;;21.20;75.00;;;;;;4850911;29;20044;-92
2022/06/02 09:10:34;;;;;;;0.47;0.30;;;21.80;74.60;;;;;;4858174;29;20149;-92
2022/06/02 09:13:38;;;;;;;0.70;0.30;;;21.70;75.70;;;;;;4858124;29;20033;-91
2022/06/02 09:16:45;;;;;;;0.88;0.30;;;21.80;73.30;;;;;;4839987;29;20039;-92
2022/06/02 09:19:46;;;;;;;0.52;0.30;;;21.80;73.20;;;;;;4848270;29;20026;-92
2022/06/02 09:23:00;;;;;;;;;;;;;;;;;;;;;
2022/06/02 09:26:18;;;;;;;0.63;0.22;;;21.70;74.60;;;;;;4853808;29;20126;-91
2022/06/02 09:29:25;;;;;;;1.90;0.30;;;21.90;74.40;;;;;;4852082;29;20034;-92
2022/06/02 10:19:04;;;;;;;0.70;0.30;;;24.10;68.60;;;;;;935682;27;21281;-90
2022/06/02 10:21:52;;;;;;;1.17;0.30;;;23.90;68.90;;;;;;4847740;29;20033;-92
2022/06/02 10:24:25;;;;;;;2.03;0.32;;;23.90;68.90;;;;;;4826500;29;20038;-91
2022/06/02 10:27:24;;;;;;;1.02;0.40;;;24.10;70.20;;;;;;4822088;29;20625;-90
2022/06/02 10:30:32;;;;;;;1.10;0.30;;;24.40;67.80;;;;;;4815165;29;20042;-91
2022/06/02 10:33:49;;;;;;;0.60;0.20;;;23.90;68.00;;;;;;4812974;29;20027;-91
2022/06/02 10:36:55;;;;;;;2.38;0.38;;;24.20;68.70;;;;;;4850071;29;20124;-91
2022/06/02 10:39:59;;;;;;;1.00;0.32;;;24.80;69.50;;;;;;4854839;29;20089;-92
2022/06/02 10:46:32;;;;;;;1.90;0.63;;;25.10;67.80;;;;;;4810807;29;20151;-92
2022/06/02 10:49:58;;;;;;;;;;;;;;;;;;;;;
2022/06/02 10:53:21;;;;;;;;;;;;;;;;;;;;;
2022/06/02 11:06:50;;;;;;;0.60;0.30;;;25.10;65.10;;;;;;1232843;27;20696;-93
2022/06/02 11:10:02;;;;;;;1.15;0.25;;;25.10;66.10;;;;;;4847921;29;20046;-93
2022/06/02 11:13:11;;;;;;;1.20;0.20;;;25.60;65.50;;;;;;4841415;29;20019;-90
2022/06/02 11:16:35;;;;;;;1.08;0.30;;;25.30;64.90;;;;;;4832391;29;20039;-90
2022/06/02 11:19:45;;;;;;;;;;;;;;;;;;;;;
2022/06/02 11:22:30;;;;;;;0.63;0.30;;;25.30;66.10;;;;;;4824678;29;20062;-90
2022/06/02 11:33:07;;;;;;;;;;;;;;;;;;;;;
2022/06/02 14:19:11;;;;;;;0.80;0.38;;;27.20;63.20;;;;;;4836613;29;20059;-89
2022/06/02 14:22:14;;;;;;;1.48;0.30;;;27.60;61.90;;;;;;4831709;29;20077;-89
2022/06/02 14:28:14;;;;;;;3.50;0.93;;;28.40;61.50;;;;;;4820823;29;20060;-88
2022/06/02 14:30:56;;;;;;;0.57;0.25;;;28.40;61.10;;;;;;4821935;29;20034;-89
2022/06/02 14:33:37;;;;;;;1.02;0.30;;;28.10;60.40;;;;;;4816594;29;20042;-89
2022/06/02 14:36:24;;;;;;;0.60;0.30;;;27.30;62.60;;;;;;4821456;29;20511;-89
2022/06/02 14:39:09;;;;;;;1.30;0.40;;;26.90;63.30;;;;;;4816397;29;20588;-89
2022/06/02 14:41:59;;;;;;;1.27;0.40;;;26.40;63.80;;;;;;4815117;29;20141;-89
2022/06/02 14:44:43;;;;;;;1.33;0.30;;;25.90;65.40;;;;;;4817611;29;20507;-89
2022/06/02 14:47:33;;;;;;;2.75;0.30;;;25.60;64.70;;;;;;4822831;29;20034;-89
2022/06/02 14:50:12;;;;;;;0.50;0.30;;;25.30;65.10;;;;;;4817128;29;20034;-88
2022/06/02 14:52:58;;;;;;;0.43;0.30;;;25.00;65.80;;;;;;4821603;29;20415;-88
2022/06/02 14:56:08;;;;;;;2.40;0.60;;;24.60;67.90;;;;;;4815284;29;20054;-89
2022/06/02 14:59:25;;;;;;;0.75;0.30;;;24.40;67.30;;;;;;4826124;29;20042;-89
2022/06/02 15:01:56;;;;;;;0.70;0.35;;;24.40;67.60;;;;;;4810006;29;20455;-89
2022/06/02 15:05:06;;;;;;;1.02;0.28;;;24.10;68.30;;;;;;4819369;29;20030;-89
2022/06/02 15:08:04;;;;;;;1.40;0.30;;;24.00;68.00;;;;;;4817308;29;20042;-89
2022/06/02 15:11:38;;;;;;;;;;;;;;;;;;;;;
2022/06/02 15:14:33;;;;;;;1.23;0.40;;;24.00;68.10;;;;;;4820340;29;20495;-89
2022/06/02 15:20:59;;;;;;;0.60;0.30;;;24.30;69.30;;;;;;4833713;29;20621;-90
2022/06/02 15:23:40;;;;;;;1.27;0.40;;;24.10;69.50;;;;;;4836850;29;20205;-89
2022/06/02 15:26:43;;;;;;;0.52;0.30;;;23.90;70.30;;;;;;4820826;29;20531;-90
2022/06/02 15:30:04;;;;;;;0.88;0.40;;;23.30;70.30;;;;;;4835016;29;20038;-90
2022/06/02 15:37:00;;;;;;;0.98;0.35;;;23.70;70.00;;;;;;4829372;29;20045;-89
2022/06/02 15:40:40;;;;;;;;;;;;;;;;;;;;;
2022/06/02 15:43:26;;;;;;;3.30;0.30;;;23.40;70.70;;;;;;4820585;29;20041;-90
2022/06/02 15:46:10;;;;;;;0.70;0.30;;;23.40;72.50;;;;;;4821486;29;20042;-90
2022/06/02 15:49:30;;;;;;;1.25;0.45;;;23.20;73.00;;;;;;4819037;29;20029;-90
2022/06/02 15:52:31;;;;;;;0.50;0.30;;;23.30;72.50;;;;;;4822693;29;20065;-88
2022/06/02 15:55:14;;;;;;;1.05;0.40;;;23.30;72.70;;;;;;4820227;29;20037;-90
2022/06/02 15:58:10;;;;;;;1.92;0.73;;;23.20;72.70;;;;;;4816499;29;20073;-89
2022/06/02 16:01:16;;;;;;;1.17;0.45;;;23.40;72.40;;;;;;4834237;29;20030;-90
2022/06/02 16:04:31;;;;;;;0.73;0.40;;;23.60;71.50;;;;;;4824580;29;20087;-90
2022/06/02 16:07:32;;;;;;;1.75;0.47;;;23.80;71.40;;;;;;4818492;29;20086;-90
2022/06/02 16:13:12;;;;;;;1.48;0.40;;;23.80;71.70;;;;;;4821982;29;20033;-90
2022/06/02 16:16:22;;;;;;;1.48;0.38;;;23.90;70.70;;;;;;4817523;29;20034;-89
2022/06/02 16:19:32;;;;;;;1.42;0.45;;;23.50;71.10;;;;;;4810013;29;20050;-90
2022/06/02 16:22:18;;;;;;;0.57;0.30;;;23.90;71.00;;;;;;4818557;29;20031;-90
2022/06/02 16:25:32;;;;;;;1.92;0.40;;;24.10;70.50;;;;;;4819560;29;20026;-90
2022/06/02 16:28:41;;;;;;;0.40;0.30;;;24.00;69.90;;;;;;4835425;29;20041;-90
2022/06/02 16:31:37;;;;;;;0.43;0.28;;;24.60;70.50;;;;;;4821234;29;20033;-91
2022/06/02 16:34:32;;;;;;;1.02;0.40;;;24.00;71.10;;;;;;4821043;29;20396;-90
2022/06/02 16:37:10;;;;;;;2.28;0.40;;;24.10;71.00;;;;;;4809136;29;20046;-90
2022/06/02 16:39:54;;;;;;;1.00;0.30;;;24.30;70.50;;;;;;4819677;29;20034;-91
2022/06/02 16:42:53;;;;;;;0.52;0.28;;;24.40;70.40;;;;;;4815849;29;20093;-90
2022/06/02 16:45:57;;;;;;;1.65;0.52;;;24.60;71.30;;;;;;4819794;29;20157;-90
2022/06/02 16:56:06;;;;;;;;;;;24.70;71.90;;;;;;4851020;29;20171;-90
2022/06/02 17:02:44;;;;;;;0.20;0.20;;;24.30;70.10;;;;;;4840537;29;20042;-89
2022/06/02 17:05:37;;;;;;;0.90;0.30;;;24.50;70.50;;;;;;4828194;29;20035;-90
2022/06/02 17:08:24;;;;;;;0.95;0.40;;;24.60;70.70;;;;;;4832875;29;20026;-91
2022/06/02 17:11:16;;;;;;;0.73;0.30;;;24.60;71.20;;;;;;4832303;29;20046;-90
2022/06/02 17:13:53;;;;;;;0.77;0.30;;;24.50;70.80;;;;;;4841223;29;20015;-89
2022/06/02 17:17:01;;;;;;;0.93;0.32;;;24.50;72.00;;;;;;4842852;29;20019;-91
2022/06/02 17:20:12;;;;;;;1.90;0.30;;;24.40;70.50;;;;;;4837698;29;20042;-92
2022/06/02 17:23:30;;;;;;;2.80;0.50;;;24.50;72.10;;;;;;4842000;29;20027;-92
2022/06/02 17:26:08;;;;;;;1.48;0.50;;;24.20;71.40;;;;;;4847214;29;20026;-91
2022/06/02 17:29:00;;;;;;;0.50;0.30;;;24.20;71.80;;;;;;4853291;29;20045;-90
2022/06/02 17:32:04;;;;;;;1.05;0.38;;;24.20;71.80;;;;;;4843752;29;20042;-91
2022/06/02 17:35:08;;;;;;;1.10;0.40;;;24.10;71.90;;;;;;4853352;29;20050;-91
2022/06/02 17:38:09;;;;;;;0.82;0.40;;;23.90;71.90;;;;;;4815830;29;20071;-90
2022/06/02 17:40:56;;;;;;;;;;;24.00;72.60;;;;;;4820780;29;20036;-91
2022/06/02 17:43:34;;;;;;;0.55;0.28;;;23.90;72.60;;;;;;4816106;29;19917;-89
2022/06/02 17:50:22;;;;;;;0.55;0.30;;;23.80;73.60;;;;;;4863826;29;20637;-91
2022/06/02 17:53:25;;;;;;;0.85;0.30;;;23.70;73.30;;;;;;4847496;29;20034;-92
2022/06/02 17:56:47;;;;;;;0.60;0.30;;;23.00;73.60;;;;;;4863015;29;20021;-91
2022/06/02 18:00:06;;;;;;;;;;;;;;;;;;;;;
2022/06/02 18:02:46;;;;;;;1.13;0.40;;;23.20;74.60;;;;;;4856720;29;20033;-91
2022/06/02 18:05:35;;;;;;;0.95;0.40;;;23.10;74.80;;;;;;4852535;29;20038;-91
2022/06/02 18:08:32;;;;;;;0.90;0.40;;;23.10;74.80;;;;;;4827113;29;20038;-89
2022/06/02 18:11:32;;;;;;;2.42;0.43;;;23.00;75.10;;;;;;4822308;29;20037;-91
2022/06/02 18:14:45;;;;;;;2.00;0.50;;;22.70;75.40;;;;;;4817866;29;20034;-89
2022/06/02 18:17:26;;;;;;;1.48;0.50;;;22.90;75.90;;;;;;4818318;29;20053;-91
2022/06/02 18:19:56;;;;;;;0.68;0.32;;;22.80;76.30;;;;;;4819816;29;20536;-89
2022/06/02 18:23:02;;;;;;;1.00;0.40;;;22.80;76.60;;;;;;4821876;29;20047;-91
2022/06/02 18:29:51;;;;;;;;;;;;;;;;;;;;;
2022/06/02 18:39:20;;;;;;;0.85;0.47;;;22.20;77.50;;;;;;4877311;29;20089;-86
2022/06/02 19:38:03;;;;;;;1.20;0.68;;;20.70;82.30;;;;;;3212396;27;20046;-88
2022/06/02 19:41:19;;;;;;;;;;;;;;;;;;;;;
2022/06/02 19:44:29;;;;;;;1.48;0.63;;;20.60;83.10;;;;;;4806809;29;20035;-90
2022/06/02 19:47:29;;;;;;;1.10;0.40;;;20.20;83.30;;;;;;4829406;29;20146;-90
2022/06/02 19:51:22;;;;;;;1.42;0.50;;;20.40;83.70;;;;;;4825929;29;20035;-92
2022/06/02 19:54:09;;;;;;;1.02;0.52;;;20.30;84.70;;;;;;4803074;29;20405;-90
2022/06/02 20:00:13;;;;;;;;;;;20.20;84.90;;;;;;4799229;29;20042;-90
2022/06/02 20:03:10;;;;;;;1.70;0.50;;;20.10;85.40;;;;;;4802740;29;19917;-92
2022/06/02 20:06:29;;;;;;;;;;;;;;;;;;;;;
2022/06/02 20:10:14;;;;;;;;;;;;;;;;;;;;;
2022/06/02 20:16:53;;;;;;;;;;;;;;;;;;;;;
2022/06/02 20:22:52;;;;;;;1.33;0.60;;;19.60;87.10;;;;;;4804293;29;20541;-91
2022/06/02 20:25:47;;;;;;;1.65;0.63;;;19.60;86.90;;;;;;4807738;29;20565;-89
2022/06/02 20:29:14;;;;;;;2.33;0.63;;;19.50;87.10;;;;;;4803706;29;20111;-91
2022/06/02 20:32:44;;;;;;;;;;;;;;;;;;;;;
2022/06/02 20:36:03;;;;;;;1.05;0.45;;;19.40;87.50;;;;;;4791953;29;20142;-89
2022/06/02 20:44:30;;;;;;;1.90;0.63;;;19.30;88.80;;;;;;4799892;29;20080;-92
2022/06/02 20:47:18;;;;;;;1.50;0.70;;;19.20;89.20;;;;;;4803048;29;20038;-91
2022/06/02 20:49:53;;;;;;;2.47;0.95;;;19.20;89.40;;;;;;4804187;29;20037;-92
2022/06/02 20:52:27;;;;;;;1.38;0.70;;;19.10;89.70;;;;;;4814285;29;20054;-92
2022/06/02 20:55:02;;;;;;;1.25;0.65;;;19.10;89.90;;;;;;4817328;29;20054;-92
2022/06/02 20:58:10;;;;;;;3.47;0.75;;;19.10;90.00;;;;;;4820023;29;20064;-92
2022/06/02 21:00:46;;;;;;;1.48;0.80;;;18.90;90.00;;;;;;4819786;29;20087;-92
2022/06/02 21:03:12;;;;;;;1.55;0.82;;;19.00;90.20;;;;;;4814155;29;20033;-92
2022/06/02 21:05:53;;;;;;;2.25;0.90;;;19.00;90.40;;;;;;4819059;29;20026;-92
2022/06/02 21:08:44;;;;;;;1.67;0.70;;;18.90;90.40;;;;;;4821495;29;20031;-92
2022/06/02 21:11:20;;;;;;;1.95;0.85;;;18.90;90.60;;;;;;4826809;29;20031;-92
2022/06/02 21:14:01;;;;;;;1.35;0.70;;;18.90;90.80;;;;;;4820793;29;20035;-92
2022/06/02 21:16:43;;;;;;;2.87;1.10;;;18.80;90.90;;;;;;4823276;29;20125;-92
2022/06/02 21:19:21;;;;;;;2.60;1.00;;;18.80;91.10;;;;;;4815290;29;20555;-92
2022/06/02 21:22:18;;;;;;;3.25;1.02;;;18.70;91.30;;;;;;4814578;29;20031;-92
2022/06/02 21:24:47;;;;;;;2.15;1.08;;;18.70;91.40;;;;;;4822410;29;20532;-92
2022/06/02 21:27:26;;;;;;;3.58;0.90;;;18.70;91.50;;;;;;4822508;29;20038;-91
2022/06/02 21:29:56;;;;;;;3.28;0.80;;;18.60;91.60;;;;;;4822598;29;20035;-92
2022/06/02 21:32:45;;;;;;;2.58;1.10;;;18.60;91.70;;;;;;4815666;29;20083;-91
2022/06/02 21:35:16;;;;;;;3.45;1.20;;;18.50;91.80;;;;;;4820533;29;20049;-92
2022/06/02 21:38:02;;;;;;;2.95;1.10;;;18.50;92.00;;;;;;4813906;29;20095;-92
2022/06/02 21:40:30;;;;;;;1.60;0.85;;;18.60;92.20;;;;;;4813578;29;20039;-91
2022/06/02 21:43:02;;;;;;;2.28;0.95;;;18.30;92.30;;;;;;4825360;29;20038;-91
2022/06/02 21:46:08;;;;;;;2.67;1.00;;;17.90;92.40;;;;;;4820710;29;20388;-91
2022/06/02 21:48:58;;;;;;;1.35;0.70;;;18.40;92.60;;;;;;4823837;29;20508;-92
2022/06/02 21:52:05;;;;;;;2.35;1.08;;;18.30;92.60;;;;;;4821605;29;20073;-91
2022/06/02 21:55:10;;;;;;;2.58;0.90;;;18.30;92.80;;;;;;4824309;29;20148;-92
2022/06/02 21:58:05;;;;;;;1.42;0.90;;;18.80;93.10;;;;;;4826172;29;20042;-91
2022/06/02 22:00:30;;;;;;;2.47;0.80;;;18.20;93.10;;;;;;4825062;29;20034;-92
2022/06/02 22:03:39;;;;;;;2.40;1.00;;;18.30;93.30;;;;;;4826389;29;20034;-92
2022/06/02 22:06:20;;;;;;;3.90;1.10;;;18.10;93.30;;;;;;4820274;29;20026;-91
2022/06/02 22:09:05;;;;;;;;;;;18.10;93.70;;;;;;4823447;29;20045;-92
2022/06/02 22:11:34;;;;;;;1.95;0.70;;;18.10;93.70;;;;;;4819116;29;19985;-93
2022/06/02 22:14:32;;;;;;;1.83;1.00;;;18.10;93.80;;;;;;4824681;29;20030;-91
2022/06/02 22:17:02;;;;;;;1.80;0.88;;;18.00;93.90;;;;;;4816190;29;20026;-91
2022/06/02 22:19:41;;;;;;;1.35;0.68;;;17.90;94.30;;;;;;4819836;29;20037;-92
2022/06/02 22:22:10;;;;;;;3.22;1.20;;;17.90;94.20;;;;;;4815251;29;20065;-92
2022/06/02 22:24:57;;;;;;;2.42;0.98;;;17.90;94.30;;;;;;4827363;29;20034;-91
2022/06/02 22:27:27;;;;;;;2.03;0.90;;;17.90;94.40;;;;;;4814563;29;20031;-91
2022/06/02 22:30:12;;;;;;;1.80;1.00;;;17.90;94.70;;;;;;4821116;29;20026;-92
2022/06/02 22:32:50;;;;;;;2.67;1.27;;;17.80;94.80;;;;;;4810770;29;20034;-91
2022/06/02 22:35:32;;;;;;;2.63;1.00;;;17.80;94.80;;;;;;4816990;29;20045;-91
2022/06/02 22:38:39;;;;;;;2.75;1.00;;;17.80;95.10;;;;;;4820182;29;20035;-91
2022/06/02 22:41:37;;;;;;;2.22;0.95;;;17.80;95.30;;;;;;4817103;29;20491;-91
2022/06/02 22:44:15;;;;;;;3.40;1.00;;;17.70;95.40;;;;;;4823104;29;20628;-91